Time;durP1;ratioP1;P1;durP2;ratioP2;P2;SDS_P1;SDS_P2;PMS_P1;PMS_P2;Temp;Humidity;BMP_temperature;BMP_pressure;BME280_temperature;BME280_humidity;BME280_pressure;Samples;Min_cycle;Max_cycle;Signal;HPM_P1;HPM_P2
2021/07/11 00:01:36;;;;;;;21.9;20.0;;;;;;;19.9;62.0;101330;;;;
2021/07/11 00:05:36;;;;;;;21.9;20.0;;;;;;;19.8;63.0;101320;;;;
2021/07/11 00:07:36;;;;;;;21.9;20.0;;;;;;;19.7;63.2;101330;;;;
2021/07/11 00:09:36;;;;;;;21.9;20.0;;;;;;;19.6;64.3;101330;;;;
2021/07/11 00:11:36;;;;;;;21.9;20.0;;;;;;;19.7;63.5;101330;;;;
2021/07/11 00:15:36;;;;;;;21.9;20.0;;;;;;;19.6;63.7;101330;;;;
2021/07/11 00:19:36;;;;;;;21.8;19.9;;;;;;;19.8;61.3;101330;;;;
2021/07/11 00:21:36;;;;;;;21.8;19.9;;;;;;;19.7;62.4;101330;;;;
2021/07/11 00:23:36;;;;;;;21.8;19.9;;;;;;;19.5;63.3;101320;;;;
2021/07/11 00:25:36;;;;;;;21.8;19.9;;;;;;;19.6;61.0;101320;;;;
2021/07/11 00:27:41;;;;;;;21.8;19.9;;;;;;;19.5;63.8;101320;;;;
2021/07/11 00:39:36;;;;;;;24.3;22.1;;;;;;;19.7;60.8;101300;;;;
2021/07/11 00:41:36;;;;;;;24.3;22.1;;;;;;;19.5;62.5;101300;;;;
2021/07/11 00:43:36;;;;;;;24.3;22.1;;;;;;;19.4;63.9;101300;;;;
2021/07/11 00:45:36;;;;;;;24.3;22.1;;;;;;;19.2;64.2;101310;;;;
2021/07/11 00:47:36;;;;;;;24.3;22.1;;;;;;;19.1;64.7;101310;;;;
2021/07/11 00:55:36;;;;;;;24.3;22.1;;;;;;;19.0;65.4;101310;;;;
2021/07/11 01:03:36;;;;;;;29.0;26.3;;;;;;;18.9;65.6;101310;;;;
2021/07/11 01:05:36;;;;;;;29.0;26.3;;;;;;;19.0;63.8;101310;;;;
2021/07/11 01:15:37;;;;;;;29.0;26.3;;;;;;;18.9;64.7;101310;;;;
2021/07/11 01:17:36;;;;;;;29.0;26.3;;;;;;;19.0;64.7;101310;;;;
2021/07/11 01:21:36;;;;;;;29.3;26.6;;;;;;;18.9;63.4;101310;;;;
2021/07/11 01:25:36;;;;;;;29.3;26.6;;;;;;;18.8;64.4;101320;;;;
2021/07/11 01:31:36;;;;;;;29.3;26.6;;;;;;;18.9;63.5;101320;;;;
2021/07/11 01:33:36;;;;;;;29.3;26.6;;;;;;;18.8;64.4;101320;;;;
2021/07/11 01:35:36;;;;;;;29.3;26.6;;;;;;;18.9;62.7;101320;;;;
2021/07/11 01:37:36;;;;;;;29.3;26.6;;;;;;;18.8;63.9;101330;;;;
2021/07/11 01:39:36;;;;;;;30.6;27.6;;;;;;;19.0;63.6;101330;;;;
2021/07/11 01:41:36;;;;;;;30.6;27.6;;;;;;;18.9;65.2;101330;;;;
2021/07/11 01:43:36;;;;;;;30.6;27.6;;;;;;;18.7;65.6;101330;;;;
2021/07/11 01:45:36;;;;;;;30.6;27.6;;;;;;;18.8;64.4;101330;;;;
2021/07/11 01:47:37;;;;;;;30.6;27.6;;;;;;;18.7;64.8;101320;;;;
2021/07/11 01:55:36;;;;;;;30.6;27.6;;;;;;;18.8;64.5;101320;;;;
2021/07/11 01:59:36;;;;;;;33.4;30.3;;;;;;;18.7;66.0;101320;;;;
2021/07/11 02:01:40;;;;;;;33.4;30.3;;;;;;;18.8;64.6;101320;;;;
2021/07/11 02:23:37;;;;;;;34.4;31.0;;;;;;;18.7;63.9;101310;;;;
2021/07/11 02:29:39;;;;;;;34.4;31.0;;;;;;;18.8;64.4;101320;;;;
2021/07/11 02:35:36;;;;;;;34.4;31.0;;;;;;;18.7;64.1;101330;;;;
2021/07/11 02:37:36;;;;;;;34.4;31.0;;;;;;;18.6;65.2;101340;;;;
2021/07/11 02:39:37;;;;;;;35.4;32.0;;;;;;;18.7;65.4;101330;;;;
2021/07/11 02:45:37;;;;;;;35.4;32.0;;;;;;;18.6;65.7;101330;;;;
2021/07/11 02:47:36;;;;;;;35.4;32.0;;;;;;;18.5;67.4;101330;;;;
2021/07/11 02:49:37;;;;;;;35.4;32.0;;;;;;;18.6;66.2;101330;;;;
2021/07/11 02:53:36;;;;;;;35.4;32.0;;;;;;;18.7;65.5;101320;;;;
2021/07/11 03:11:36;;;;;;;36.4;32.8;;;;;;;18.8;64.4;101330;;;;
2021/07/11 03:13:36;;;;;;;36.4;32.8;;;;;;;18.7;64.2;101340;;;;
2021/07/11 03:17:37;;;;;;;36.4;32.8;;;;;;;18.6;64.8;101340;;;;
2021/07/11 03:21:36;;;;;;;38.4;34.7;;;;;;;18.7;65.3;101330;;;;
2021/07/11 03:23:36;;;;;;;38.4;34.7;;;;;;;18.6;65.9;101340;;;;
2021/07/11 03:25:36;;;;;;;38.4;34.7;;;;;;;18.5;66.1;101340;;;;
2021/07/11 03:27:36;;;;;;;38.4;34.7;;;;;;;18.6;65.6;101340;;;;
2021/07/11 03:33:36;;;;;;;38.4;34.7;;;;;;;18.5;67.7;101340;;;;
2021/07/11 03:37:36;;;;;;;38.4;34.7;;;;;;;18.6;65.6;101350;;;;
2021/07/11 03:39:38;;;;;;;39.3;35.5;;;;;;;18.7;63.5;101350;;;;
2021/07/11 03:41:36;;;;;;;39.3;35.5;;;;;;;18.6;64.6;101350;;;;
2021/07/11 03:45:37;;;;;;;39.3;35.5;;;;;;;18.5;65.6;101350;;;;
2021/07/11 03:53:36;;;;;;;39.3;35.5;;;;;;;18.6;64.4;101350;;;;
2021/07/11 03:55:37;;;;;;;39.3;35.5;;;;;;;18.5;66.1;101350;;;;
2021/07/11 03:59:36;;;;;;;43.7;39.3;;;;;;;18.6;64.6;101350;;;;
2021/07/11 04:01:37;;;;;;;43.7;39.3;;;;;;;18.5;66.4;101350;;;;
2021/07/11 04:05:36;;;;;;;43.7;39.3;;;;;;;18.4;66.9;101350;;;;
2021/07/11 04:11:36;;;;;;;43.7;39.3;;;;;;;18.3;68.0;101360;;;;
2021/07/11 04:15:36;;;;;;;43.7;39.3;;;;;;;18.2;67.9;101360;;;;
2021/07/11 04:17:37;;;;;;;43.7;39.3;;;;;;;18.3;68.3;101350;;;;
2021/07/11 04:21:36;;;;;;;46.5;41.6;;;;;;;18.4;65.9;101360;;;;
2021/07/11 04:25:40;;;;;;;46.5;41.6;;;;;;;18.5;65.9;101350;;;;
2021/07/11 04:29:37;;;;;;;46.5;41.6;;;;;;;18.4;68.1;101350;;;;
2021/07/11 04:31:36;;;;;;;46.5;41.6;;;;;;;18.5;68.1;101340;;;;
2021/07/11 04:33:36;;;;;;;46.5;41.6;;;;;;;18.4;67.8;101350;;;;
2021/07/11 04:35:36;;;;;;;46.5;41.6;;;;;;;18.3;68.3;101340;;;;
2021/07/11 04:37:36;;;;;;;46.5;41.6;;;;;;;18.4;67.4;101340;;;;
2021/07/11 04:39:36;;;;;;;46.7;41.9;;;;;;;18.5;66.0;101350;;;;
2021/07/11 04:43:36;;;;;;;46.7;41.9;;;;;;;18.4;65.5;101350;;;;
2021/07/11 04:45:38;;;;;;;46.7;41.9;;;;;;;18.5;66.4;101360;;;;
2021/07/11 04:49:36;;;;;;;46.7;41.9;;;;;;;18.4;66.9;101360;;;;
2021/07/11 04:51:36;;;;;;;46.7;41.9;;;;;;;18.5;67.0;101360;;;;
2021/07/11 04:53:36;;;;;;;46.7;41.9;;;;;;;18.4;67.2;101360;;;;
2021/07/11 04:57:36;;;;;;;46.7;41.9;;;;;;;18.3;67.4;101360;;;;
2021/07/11 04:59:36;;;;;;;44.6;39.9;;;;;;;18.4;67.8;101360;;;;
2021/07/11 05:07:39;;;;;;;44.6;39.9;;;;;;;18.3;65.8;101360;;;;
2021/07/11 05:09:36;;;;;;;44.6;39.9;;;;;;;18.4;65.6;101360;;;;
2021/07/11 05:17:36;;;;;;;44.6;39.9;;;;;;;18.3;65.5;101340;;;;
2021/07/11 05:19:36;;;;;;;44.1;39.3;;;;;;;18.4;65.0;101340;;;;
2021/07/11 05:29:36;;;;;;;44.1;39.3;;;;;;;18.5;66.1;101340;;;;
2021/07/11 05:39:36;;;;;;;44.8;40.1;;;;;;;18.6;65.6;101340;;;;
2021/07/11 05:47:37;;;;;;;44.8;40.1;;;;;;;18.7;65.5;101330;;;;
2021/07/11 05:49:36;;;;;;;44.8;40.1;;;;;;;18.8;66.8;101330;;;;
2021/07/11 05:55:37;;;;;;;44.8;40.1;;;;;;;18.9;66.4;101350;;;;
2021/07/11 05:59:36;;;;;;;42.0;37.6;;;;;;;19.0;67.0;101360;;;;
2021/07/11 06:03:36;;;;;;;42.0;37.6;;;;;;;18.9;67.6;101350;;;;
2021/07/11 06:05:37;;;;;;;42.0;37.6;;;;;;;19.0;67.3;101360;;;;
2021/07/11 06:11:37;;;;;;;42.0;37.6;;;;;;;19.1;66.5;101370;;;;
2021/07/11 06:13:37;;;;;;;42.0;37.6;;;;;;;19.2;66.8;101370;;;;
2021/07/11 06:21:36;;;;;;;42.2;37.9;;;;;;;19.3;66.1;101380;;;;
2021/07/11 06:23:36;;;;;;;42.2;37.9;;;;;;;19.4;66.9;101390;;;;
2021/07/11 06:25:36;;;;;;;42.2;37.9;;;;;;;19.5;66.9;101390;;;;
2021/07/11 06:35:36;;;;;;;42.2;37.9;;;;;;;19.6;65.6;101400;;;;
2021/07/11 06:37:36;;;;;;;42.2;37.9;;;;;;;19.5;65.6;101400;;;;
2021/07/11 06:39:36;;;;;;;41.9;37.4;;;;;;;19.6;66.0;101400;;;;
2021/07/11 06:45:37;;;;;;;41.9;37.4;;;;;;;19.6;65.7;101410;;;;
2021/07/11 06:51:36;;;;;;;41.9;37.4;;;;;;;19.7;64.5;101420;;;;
2021/07/11 06:55:36;;;;;;;41.9;37.4;;;;;;;19.6;64.5;101420;;;;
2021/07/11 07:05:37;;;;;;;44.0;39.3;;;;;;;19.7;66.1;101420;;;;
2021/07/11 07:07:36;;;;;;;44.0;39.3;;;;;;;19.8;65.5;101420;;;;
2021/07/11 07:11:36;;;;;;;44.0;39.3;;;;;;;19.9;64.2;101420;;;;
2021/07/11 07:17:37;;;;;;;44.0;39.3;;;;;;;20.0;64.4;101440;;;;
2021/07/11 07:21:37;;;;;;;40.9;36.6;;;;;;;20.1;63.8;101440;;;;
2021/07/11 07:25:36;;;;;;;40.9;36.6;;;;;;;20.0;65.9;101440;;;;
2021/07/11 07:29:36;;;;;;;40.9;36.6;;;;;;;20.1;63.6;101440;;;;
2021/07/11 07:31:37;;;;;;;40.9;36.6;;;;;;;19.9;64.9;101440;;;;
2021/07/11 07:33:36;;;;;;;40.9;36.6;;;;;;;20.0;65.2;101440;;;;
2021/07/11 07:37:36;;;;;;;40.9;36.6;;;;;;;20.1;64.4;101450;;;;
2021/07/11 07:39:36;;;;;;;47.4;41.5;;;;;;;20.0;64.9;101450;;;;
2021/07/11 07:41:37;;;;;;;47.4;41.5;;;;;;;19.7;65.7;101450;;;;
2021/07/11 07:43:37;;;;;;;47.4;41.5;;;;;;;19.6;65.6;101440;;;;
2021/07/11 07:49:36;;;;;;;47.4;41.5;;;;;;;19.8;65.6;101450;;;;
2021/07/11 07:51:36;;;;;;;47.4;41.5;;;;;;;19.6;66.0;101450;;;;
2021/07/11 07:55:37;;;;;;;47.4;41.5;;;;;;;19.7;65.9;101450;;;;
2021/07/11 07:57:36;;;;;;;47.4;41.5;;;;;;;19.6;65.8;101450;;;;
2021/07/11 07:59:37;;;;;;;51.7;41.6;;;;;;;19.8;66.2;101450;;;;
2021/07/11 08:01:38;;;;;;;51.7;41.6;;;;;;;19.9;65.9;101450;;;;
2021/07/11 08:03:36;;;;;;;51.7;41.6;;;;;;;20.0;65.3;101450;;;;
2021/07/11 08:05:37;;;;;;;51.7;41.6;;;;;;;19.9;65.1;101450;;;;
2021/07/11 08:07:36;;;;;;;51.7;41.6;;;;;;;19.8;65.7;101440;;;;
2021/07/11 08:09:36;;;;;;;51.7;41.6;;;;;;;20.0;65.9;101440;;;;
2021/07/11 08:11:37;;;;;;;51.7;41.6;;;;;;;20.1;64.9;101440;;;;
2021/07/11 08:13:37;;;;;;;51.7;41.6;;;;;;;19.9;65.4;101440;;;;
2021/07/11 08:15:40;;;;;;;51.7;41.6;;;;;;;20.1;64.9;101440;;;;
2021/07/11 08:19:37;;;;;;;47.4;39.0;;;;;;;20.3;65.3;101450;;;;
2021/07/11 08:23:36;;;;;;;47.4;39.0;;;;;;;20.5;64.4;101450;;;;
2021/07/11 08:27:37;;;;;;;47.4;39.0;;;;;;;20.6;63.8;101450;;;;
2021/07/11 08:29:36;;;;;;;47.4;39.0;;;;;;;20.8;62.7;101450;;;;
2021/07/11 08:31:37;;;;;;;47.4;39.0;;;;;;;20.9;63.0;101450;;;;
2021/07/11 08:33:37;;;;;;;47.4;39.0;;;;;;;21.0;62.9;101450;;;;
2021/07/11 08:37:36;;;;;;;47.4;39.0;;;;;;;21.1;62.3;101450;;;;
2021/07/11 08:39:37;;;;;;;38.4;34.3;;;;;;;21.4;62.3;101450;;;;
2021/07/11 08:41:37;;;;;;;38.4;34.3;;;;;;;21.6;60.8;101440;;;;
2021/07/11 08:43:36;;;;;;;38.4;34.3;;;;;;;21.5;60.7;101450;;;;
2021/07/11 08:45:36;;;;;;;38.4;34.3;;;;;;;21.6;61.0;101440;;;;
2021/07/11 08:51:36;;;;;;;38.4;34.3;;;;;;;21.5;59.2;101440;;;;
2021/07/11 08:53:36;;;;;;;38.4;34.3;;;;;;;21.4;60.3;101440;;;;
2021/07/11 08:55:36;;;;;;;38.4;34.3;;;;;;;21.5;60.1;101450;;;;
2021/07/11 08:57:36;;;;;;;38.4;34.3;;;;;;;21.7;59.6;101440;;;;
2021/07/11 08:59:36;;;;;;;32.2;29.0;;;;;;;21.6;58.9;101450;;;;
2021/07/11 09:01:37;;;;;;;32.2;29.0;;;;;;;21.7;59.4;101450;;;;
2021/07/11 09:03:36;;;;;;;32.2;29.0;;;;;;;21.5;59.0;101450;;;;
2021/07/11 09:05:39;;;;;;;32.2;29.0;;;;;;;21.7;58.8;101450;;;;
2021/07/11 09:07:37;;;;;;;32.2;29.0;;;;;;;22.0;58.3;101450;;;;
2021/07/11 09:11:36;;;;;;;32.2;29.0;;;;;;;21.9;57.8;101460;;;;
2021/07/11 09:13:37;;;;;;;32.2;29.0;;;;;;;22.0;57.5;101460;;;;
2021/07/11 09:15:37;;;;;;;32.2;29.0;;;;;;;22.1;57.9;101460;;;;
2021/07/11 09:17:36;;;;;;;32.2;29.0;;;;;;;22.2;57.4;101460;;;;
2021/07/11 09:19:38;;;;;;;24.2;21.9;;;;;;;22.3;57.4;101460;;;;
2021/07/11 09:21:36;;;;;;;24.2;21.9;;;;;;;22.1;56.2;101460;;;;
2021/07/11 09:23:37;;;;;;;24.2;21.9;;;;;;;22.3;56.3;101460;;;;
2021/07/11 09:25:36;;;;;;;24.2;21.9;;;;;;;22.2;56.4;101460;;;;
2021/07/11 09:27:38;;;;;;;24.2;21.9;;;;;;;22.1;56.2;101460;;;;
2021/07/11 09:29:41;;;;;;;24.2;21.9;;;;;;;22.2;56.5;101460;;;;
2021/07/11 09:31:37;;;;;;;24.2;21.9;;;;;;;22.3;57.0;101460;;;;
2021/07/11 09:33:37;;;;;;;24.2;21.9;;;;;;;22.4;57.1;101460;;;;
2021/07/11 09:37:37;;;;;;;24.2;21.9;;;;;;;22.6;56.3;101460;;;;
2021/07/11 09:41:37;;;;;;;21.2;19.2;;;;;;;22.5;56.1;101460;;;;
2021/07/11 09:43:37;;;;;;;21.2;19.2;;;;;;;22.4;55.5;101470;;;;
2021/07/11 09:45:37;;;;;;;21.2;19.2;;;;;;;22.7;55.9;101470;;;;
2021/07/11 09:49:37;;;;;;;21.2;19.2;;;;;;;22.9;54.7;101470;;;;
2021/07/11 09:51:37;;;;;;;21.2;19.2;;;;;;;22.8;54.5;101470;;;;
2021/07/11 09:55:37;;;;;;;21.2;19.2;;;;;;;23.0;54.9;101460;;;;
2021/07/11 09:57:46;;;;;;;21.2;19.2;;;;;;;22.9;55.0;101470;;;;
2021/07/11 09:59:37;;;;;;;16.3;14.8;;;;;;;22.8;55.1;101460;;;;
2021/07/11 10:01:37;;;;;;;16.3;14.8;;;;;;;23.0;54.1;101460;;;;
2021/07/11 10:05:37;;;;;;;16.3;14.8;;;;;;;23.1;53.6;101460;;;;
2021/07/11 10:07:37;;;;;;;16.3;14.8;;;;;;;23.0;53.5;101460;;;;
2021/07/11 10:09:37;;;;;;;16.3;14.8;;;;;;;22.8;54.1;101460;;;;
2021/07/11 10:11:37;;;;;;;16.3;14.8;;;;;;;22.9;54.6;101450;;;;
2021/07/11 10:13:37;;;;;;;16.3;14.8;;;;;;;22.8;54.4;101450;;;;
2021/07/11 10:17:37;;;;;;;16.3;14.8;;;;;;;23.0;54.4;101450;;;;
2021/07/11 10:19:37;;;;;;;14.4;13.2;;;;;;;23.1;53.2;101450;;;;
2021/07/11 10:21:37;;;;;;;14.4;13.2;;;;;;;23.0;53.5;101450;;;;
2021/07/11 10:25:37;;;;;;;14.4;13.2;;;;;;;23.2;53.0;101450;;;;
2021/07/11 10:27:37;;;;;;;14.4;13.2;;;;;;;23.3;52.7;101450;;;;
2021/07/11 10:33:37;;;;;;;14.4;13.2;;;;;;;23.5;52.6;101450;;;;
2021/07/11 10:35:37;;;;;;;14.4;13.2;;;;;;;23.6;52.0;101460;;;;
2021/07/11 10:37:37;;;;;;;14.4;13.2;;;;;;;23.8;52.0;101450;;;;
2021/07/11 10:39:37;;;;;;;10.6;9.6;;;;;;;23.9;53.2;101450;;;;
2021/07/11 10:41:37;;;;;;;10.6;9.6;;;;;;;23.8;51.3;101450;;;;
2021/07/11 10:43:37;;;;;;;10.6;9.6;;;;;;;23.9;51.7;101460;;;;
2021/07/11 10:47:37;;;;;;;10.6;9.6;;;;;;;24.0;52.5;101450;;;;
2021/07/11 10:49:37;;;;;;;10.6;9.6;;;;;;;23.9;50.4;101460;;;;
2021/07/11 10:51:37;;;;;;;10.6;9.6;;;;;;;24.1;51.6;101450;;;;
2021/07/11 10:53:37;;;;;;;10.6;9.6;;;;;;;24.2;50.9;101450;;;;
2021/07/11 10:55:37;;;;;;;10.6;9.6;;;;;;;24.1;50.7;101450;;;;
2021/07/11 10:59:37;;;;;;;6.8;6.3;;;;;;;24.3;50.3;101450;;;;
2021/07/11 11:01:38;;;;;;;6.8;6.3;;;;;;;24.5;50.4;101450;;;;
2021/07/11 11:03:37;;;;;;;6.8;6.3;;;;;;;24.6;50.7;101450;;;;
2021/07/11 11:05:37;;;;;;;6.8;6.3;;;;;;;24.5;51.2;101450;;;;
2021/07/11 11:07:37;;;;;;;6.8;6.3;;;;;;;24.4;49.7;101440;;;;
2021/07/11 11:09:37;;;;;;;6.8;6.3;;;;;;;24.2;49.1;101440;;;;
2021/07/11 11:11:37;;;;;;;6.8;6.3;;;;;;;24.4;50.1;101450;;;;
2021/07/11 11:15:37;;;;;;;6.8;6.3;;;;;;;24.5;50.4;101450;;;;
2021/07/11 11:17:37;;;;;;;6.8;6.3;;;;;;;24.7;49.3;101450;;;;
2021/07/11 11:23:37;;;;;;;4.8;4.4;;;;;;;24.4;46.8;101450;;;;
2021/07/11 11:25:37;;;;;;;4.8;4.4;;;;;;;24.3;47.4;101450;;;;
2021/07/11 11:27:37;;;;;;;4.8;4.4;;;;;;;24.5;46.9;101450;;;;
2021/07/11 11:31:37;;;;;;;4.8;4.4;;;;;;;24.6;48.3;101450;;;;
2021/07/11 11:33:37;;;;;;;4.8;4.4;;;;;;;24.8;48.0;101460;;;;
2021/07/11 11:35:37;;;;;;;4.8;4.4;;;;;;;25.0;49.4;101450;;;;
2021/07/11 11:39:37;;;;;;;4.0;3.7;;;;;;;24.9;48.0;101450;;;;
2021/07/11 11:41:37;;;;;;;4.0;3.7;;;;;;;24.8;45.7;101460;;;;
2021/07/11 11:43:37;;;;;;;4.0;3.7;;;;;;;25.0;46.3;101450;;;;
2021/07/11 11:45:37;;;;;;;4.0;3.7;;;;;;;25.1;47.3;101450;;;;
2021/07/11 11:49:37;;;;;;;4.0;3.7;;;;;;;25.2;46.2;101450;;;;
2021/07/11 11:51:37;;;;;;;4.0;3.7;;;;;;;25.4;46.2;101450;;;;
2021/07/11 11:53:37;;;;;;;4.0;3.7;;;;;;;25.3;44.4;101450;;;;
2021/07/11 11:55:37;;;;;;;4.0;3.7;;;;;;;25.4;47.2;101450;;;;
2021/07/11 11:57:39;;;;;;;4.0;3.7;;;;;;;25.2;45.5;101450;;;;
2021/07/11 12:03:37;;;;;;;3.4;2.6;;;;;;;25.3;46.7;101450;;;;
2021/07/11 12:05:46;;;;;;;3.4;2.6;;;;;;;25.4;46.0;101450;;;;
2021/07/11 12:07:37;;;;;;;3.4;2.6;;;;;;;25.3;44.6;101450;;;;
2021/07/11 12:11:37;;;;;;;3.4;2.6;;;;;;;25.4;46.0;101440;;;;
2021/07/11 12:13:37;;;;;;;3.4;2.6;;;;;;;25.7;45.9;101450;;;;
2021/07/11 12:15:37;;;;;;;3.4;2.6;;;;;;;25.6;44.8;101440;;;;
2021/07/11 12:17:37;;;;;;;3.4;2.6;;;;;;;25.9;44.0;101440;;;;
2021/07/11 12:19:37;;;;;;;4.3;3.9;;;;;;;26.0;43.3;101450;;;;
2021/07/11 12:23:37;;;;;;;4.3;3.9;;;;;;;26.2;44.3;101440;;;;
2021/07/11 12:25:39;;;;;;;4.3;3.9;;;;;;;26.5;45.1;101440;;;;
2021/07/11 12:27:37;;;;;;;4.3;3.9;;;;;;;26.6;42.9;101440;;;;
2021/07/11 12:31:37;;;;;;;4.3;3.9;;;;;;;26.7;43.0;101440;;;;
2021/07/11 12:35:37;;;;;;;4.3;3.9;;;;;;;26.8;41.8;101440;;;;
2021/07/11 12:37:37;;;;;;;4.3;3.9;;;;;;;26.6;42.7;101450;;;;
2021/07/11 12:39:37;;;;;;;5.4;4.9;;;;;;;26.8;43.6;101450;;;;
2021/07/11 12:43:37;;;;;;;5.4;4.9;;;;;;;26.6;43.9;101450;;;;
2021/07/11 12:45:37;;;;;;;5.4;4.9;;;;;;;26.5;45.4;101440;;;;
2021/07/11 12:47:37;;;;;;;5.4;4.9;;;;;;;26.3;44.2;101440;;;;
2021/07/11 12:49:37;;;;;;;5.4;4.9;;;;;;;26.5;46.2;101440;;;;
2021/07/11 12:51:37;;;;;;;5.4;4.9;;;;;;;26.3;43.7;101440;;;;
2021/07/11 12:53:37;;;;;;;5.4;4.9;;;;;;;26.1;44.5;101440;;;;
2021/07/11 12:55:37;;;;;;;5.4;4.9;;;;;;;26.0;46.0;101440;;;;
2021/07/11 12:57:37;;;;;;;5.4;4.9;;;;;;;25.9;44.4;101440;;;;
2021/07/11 12:59:37;;;;;;;6.3;5.7;;;;;;;26.1;44.5;101430;;;;
2021/07/11 13:03:37;;;;;;;6.3;5.7;;;;;;;26.2;44.5;101430;;;;
2021/07/11 13:05:37;;;;;;;6.3;5.7;;;;;;;26.3;45.4;101430;;;;
2021/07/11 13:17:40;;;;;;;6.3;5.7;;;;;;;26.2;44.7;101420;;;;
2021/07/11 13:19:37;;;;;;;7.1;6.4;;;;;;;26.1;44.8;101420;;;;
2021/07/11 13:21:37;;;;;;;7.1;6.4;;;;;;;26.2;46.8;101420;;;;
2021/07/11 13:29:37;;;;;;;7.1;6.4;;;;;;;26.3;44.6;101420;;;;
2021/07/11 13:31:40;;;;;;;7.1;6.4;;;;;;;26.0;43.8;101420;;;;
2021/07/11 13:33:37;;;;;;;7.1;6.4;;;;;;;26.1;45.0;101420;;;;
2021/07/11 13:35:37;;;;;;;7.1;6.4;;;;;;;26.2;45.5;101420;;;;
2021/07/11 13:37:37;;;;;;;7.1;6.4;;;;;;;26.1;44.4;101420;;;;
2021/07/11 13:41:37;;;;;;;6.2;5.6;;;;;;;26.0;45.2;101420;;;;
2021/07/11 13:43:37;;;;;;;6.2;5.6;;;;;;;25.9;44.8;101420;;;;
2021/07/11 13:45:40;;;;;;;6.2;5.6;;;;;;;26.0;45.0;101420;;;;
2021/07/11 13:47:37;;;;;;;6.2;5.6;;;;;;;25.8;44.6;101420;;;;
2021/07/11 13:49:37;;;;;;;6.2;5.6;;;;;;;25.6;43.5;101410;;;;
2021/07/11 13:51:37;;;;;;;6.2;5.6;;;;;;;25.8;44.5;101410;;;;
2021/07/11 13:53:37;;;;;;;6.2;5.6;;;;;;;25.9;43.9;101410;;;;
2021/07/11 13:57:37;;;;;;;6.2;5.6;;;;;;;25.8;43.8;101410;;;;
2021/07/11 14:01:37;;;;;;;6.0;5.4;;;;;;;25.7;45.0;101410;;;;
2021/07/11 14:03:37;;;;;;;6.0;5.4;;;;;;;25.8;44.2;101410;;;;
2021/07/11 14:09:37;;;;;;;6.0;5.4;;;;;;;26.1;43.9;101410;;;;
2021/07/11 14:11:37;;;;;;;6.0;5.4;;;;;;;26.0;44.0;101410;;;;
2021/07/11 14:13:37;;;;;;;6.0;5.4;;;;;;;26.1;44.7;101410;;;;
2021/07/11 14:15:38;;;;;;;6.0;5.4;;;;;;;26.0;45.2;101410;;;;
2021/07/11 14:17:37;;;;;;;6.0;5.4;;;;;;;25.9;44.1;101400;;;;
2021/07/11 14:19:37;;;;;;;4.8;4.4;;;;;;;26.0;43.6;101400;;;;
2021/07/11 14:21:38;;;;;;;4.8;4.4;;;;;;;26.2;43.2;101400;;;;
2021/07/11 14:23:37;;;;;;;4.8;4.4;;;;;;;26.1;43.5;101400;;;;
2021/07/11 14:25:37;;;;;;;4.8;4.4;;;;;;;26.4;43.7;101400;;;;
2021/07/11 14:27:37;;;;;;;4.8;4.4;;;;;;;26.1;43.1;101400;;;;
2021/07/11 14:29:37;;;;;;;4.8;4.4;;;;;;;26.0;43.5;101400;;;;
2021/07/11 14:31:37;;;;;;;4.8;4.4;;;;;;;26.1;43.8;101390;;;;
2021/07/11 14:33:37;;;;;;;4.8;4.4;;;;;;;26.0;43.2;101390;;;;
2021/07/11 14:35:37;;;;;;;4.8;4.4;;;;;;;26.4;43.5;101390;;;;
2021/07/11 14:39:37;;;;;;;68.2;62.2;;;;;;;26.3;44.0;101390;;;;
2021/07/11 14:43:37;;;;;;;68.2;62.2;;;;;;;26.5;42.9;101390;;;;
2021/07/11 14:45:37;;;;;;;68.2;62.2;;;;;;;26.1;43.4;101390;;;;
2021/07/11 14:47:37;;;;;;;68.2;62.2;;;;;;;26.4;42.8;101390;;;;
2021/07/11 14:49:37;;;;;;;68.2;62.2;;;;;;;26.6;43.9;101380;;;;
2021/07/11 14:51:37;;;;;;;68.2;62.2;;;;;;;26.8;43.6;101390;;;;
2021/07/11 14:53:37;;;;;;;68.2;62.2;;;;;;;27.0;42.5;101390;;;;
2021/07/11 14:57:37;;;;;;;68.2;62.2;;;;;;;27.1;41.9;101380;;;;
2021/07/11 14:59:37;;;;;;;4.7;4.3;;;;;;;26.9;41.3;101380;;;;
2021/07/11 15:01:37;;;;;;;4.7;4.3;;;;;;;27.0;42.1;101380;;;;
2021/07/11 15:03:37;;;;;;;4.7;4.3;;;;;;;26.9;42.1;101380;;;;
2021/07/11 15:05:37;;;;;;;4.7;4.3;;;;;;;27.0;41.8;101380;;;;
2021/07/11 15:07:37;;;;;;;4.7;4.3;;;;;;;27.1;41.2;101370;;;;
2021/07/11 15:09:37;;;;;;;4.7;4.3;;;;;;;27.3;41.2;101370;;;;
2021/07/11 15:11:37;;;;;;;4.7;4.3;;;;;;;27.0;41.1;101370;;;;
2021/07/11 15:15:37;;;;;;;4.7;4.3;;;;;;;26.9;41.0;101370;;;;
2021/07/11 15:19:37;;;;;;;20.5;17.5;;;;;;;26.8;41.7;101370;;;;
2021/07/11 15:21:37;;;;;;;20.5;17.5;;;;;;;26.9;41.2;101360;;;;
2021/07/11 15:23:37;;;;;;;20.5;17.5;;;;;;;26.8;41.0;101360;;;;
2021/07/11 15:25:37;;;;;;;20.5;17.5;;;;;;;26.9;41.2;101360;;;;
2021/07/11 15:27:37;;;;;;;20.5;17.5;;;;;;;26.8;41.5;101360;;;;
2021/07/11 15:29:37;;;;;;;20.5;17.5;;;;;;;26.3;41.2;101360;;;;
2021/07/11 15:31:37;;;;;;;20.5;17.5;;;;;;;26.4;42.1;101360;;;;
2021/07/11 15:33:37;;;;;;;20.5;17.5;;;;;;;26.1;41.7;101360;;;;
2021/07/11 15:35:37;;;;;;;20.5;17.5;;;;;;;26.4;42.3;101350;;;;
2021/07/11 15:39:37;;;;;;;13.9;12.4;;;;;;;26.3;42.5;101350;;;;
2021/07/11 15:45:37;;;;;;;13.9;12.4;;;;;;;26.1;42.3;101350;;;;
2021/07/11 15:47:37;;;;;;;13.9;12.4;;;;;;;26.0;41.9;101350;;;;
2021/07/11 15:49:37;;;;;;;13.9;12.4;;;;;;;25.8;41.5;101350;;;;
2021/07/11 15:51:37;;;;;;;13.9;12.4;;;;;;;26.1;41.8;101350;;;;
2021/07/11 15:57:37;;;;;;;13.9;12.4;;;;;;;26.4;42.4;101340;;;;
2021/07/11 15:59:37;;;;;;;8.7;7.8;;;;;;;26.2;41.8;101340;;;;
2021/07/11 16:01:37;;;;;;;8.7;7.8;;;;;;;26.1;41.5;101340;;;;
2021/07/11 16:03:37;;;;;;;8.7;7.8;;;;;;;26.3;41.7;101340;;;;
2021/07/11 16:07:37;;;;;;;8.7;7.8;;;;;;;26.1;41.4;101340;;;;
2021/07/11 16:09:37;;;;;;;8.7;7.8;;;;;;;26.2;41.8;101340;;;;
2021/07/11 16:17:37;;;;;;;8.7;7.8;;;;;;;26.5;41.6;101320;;;;
2021/07/11 16:19:37;;;;;;;13.7;11.7;;;;;;;26.6;41.0;101320;;;;
2021/07/11 16:21:37;;;;;;;13.7;11.7;;;;;;;26.7;41.0;101320;;;;
2021/07/11 16:23:37;;;;;;;13.7;11.7;;;;;;;26.6;40.8;101320;;;;
2021/07/11 16:27:37;;;;;;;13.7;11.7;;;;;;;26.4;41.4;101320;;;;
2021/07/11 16:31:37;;;;;;;13.7;11.7;;;;;;;26.7;41.1;101310;;;;
2021/07/11 16:33:46;;;;;;;13.7;11.7;;;;;;;27.0;41.7;101310;;;;
2021/07/11 16:35:37;;;;;;;13.7;11.7;;;;;;;27.1;41.4;101310;;;;
2021/07/11 16:39:37;;;;;;;5.0;3.4;;;;;;;27.2;39.8;101310;;;;
2021/07/11 16:41:38;;;;;;;5.0;3.4;;;;;;;27.4;39.9;101310;;;;
2021/07/11 16:43:37;;;;;;;5.0;3.4;;;;;;;27.6;40.2;101310;;;;
2021/07/11 16:45:37;;;;;;;5.0;3.4;;;;;;;27.9;39.5;101310;;;;
2021/07/11 16:47:37;;;;;;;5.0;3.4;;;;;;;28.2;40.1;101300;;;;
2021/07/11 16:49:37;;;;;;;5.0;3.4;;;;;;;28.5;39.7;101300;;;;
2021/07/11 16:51:37;;;;;;;5.0;3.4;;;;;;;29.0;39.2;101300;;;;
2021/07/11 16:53:37;;;;;;;5.0;3.4;;;;;;;29.3;37.9;101300;;;;
2021/07/11 16:55:37;;;;;;;5.0;3.4;;;;;;;29.1;36.0;101300;;;;
2021/07/11 17:01:37;;;;;;;7.4;6.1;;;;;;;28.5;38.5;101300;;;;
2021/07/11 17:03:42;;;;;;;7.4;6.1;;;;;;;28.4;38.4;101300;;;;
2021/07/11 17:05:37;;;;;;;7.4;6.1;;;;;;;28.3;38.3;101300;;;;
2021/07/11 17:07:37;;;;;;;7.4;6.1;;;;;;;28.6;38.3;101300;;;;
2021/07/11 17:09:37;;;;;;;7.4;6.1;;;;;;;29.1;38.1;101300;;;;
2021/07/11 17:11:37;;;;;;;7.4;6.1;;;;;;;29.4;37.7;101300;;;;
2021/07/11 17:15:37;;;;;;;7.4;6.1;;;;;;;30.0;38.5;101300;;;;
2021/07/11 17:17:37;;;;;;;7.4;6.1;;;;;;;30.3;37.3;101300;;;;
2021/07/11 17:19:37;;;;;;;2.8;2.6;;;;;;;30.2;36.4;101290;;;;
2021/07/11 17:23:37;;;;;;;2.8;2.6;;;;;;;30.1;35.7;101300;;;;
2021/07/11 17:25:37;;;;;;;2.8;2.6;;;;;;;30.5;37.9;101300;;;;
2021/07/11 17:27:37;;;;;;;2.8;2.6;;;;;;;30.7;37.3;101290;;;;
2021/07/11 17:29:37;;;;;;;2.8;2.6;;;;;;;30.5;35.5;101300;;;;
2021/07/11 17:31:37;;;;;;;2.8;2.6;;;;;;;30.7;37.3;101290;;;;
2021/07/11 17:33:37;;;;;;;2.8;2.6;;;;;;;30.6;33.6;101280;;;;
2021/07/11 17:35:37;;;;;;;2.8;2.6;;;;;;;31.0;36.8;101290;;;;
2021/07/11 17:37:37;;;;;;;2.8;2.6;;;;;;;31.1;34.3;101280;;;;
2021/07/11 17:39:37;;;;;;;6.9;4.8;;;;;;;31.0;33.7;101280;;;;
2021/07/11 17:41:37;;;;;;;6.9;4.8;;;;;;;30.3;34.0;101290;;;;
2021/07/11 17:43:37;;;;;;;6.9;4.8;;;;;;;30.2;36.8;101280;;;;
2021/07/11 17:45:37;;;;;;;6.9;4.8;;;;;;;30.1;36.4;101280;;;;
2021/07/11 17:47:37;;;;;;;6.9;4.8;;;;;;;30.0;37.3;101280;;;;
2021/07/11 17:49:37;;;;;;;6.9;4.8;;;;;;;30.1;35.9;101280;;;;
2021/07/11 17:51:37;;;;;;;6.9;4.8;;;;;;;29.8;35.4;101280;;;;
2021/07/11 17:53:37;;;;;;;6.9;4.8;;;;;;;29.5;36.2;101280;;;;
2021/07/11 17:55:37;;;;;;;6.9;4.8;;;;;;;29.0;36.1;101280;;;;
2021/07/11 17:57:42;;;;;;;6.9;4.8;;;;;;;28.3;37.0;101280;;;;
2021/07/11 18:01:37;;;;;;;2.8;2.6;;;;;;;28.4;38.2;101290;;;;
2021/07/11 18:03:37;;;;;;;2.8;2.6;;;;;;;27.8;38.8;101290;;;;
2021/07/11 18:05:37;;;;;;;2.8;2.6;;;;;;;27.7;39.6;101290;;;;
2021/07/11 18:07:37;;;;;;;2.8;2.6;;;;;;;27.6;39.8;101290;;;;
2021/07/11 18:09:37;;;;;;;2.8;2.6;;;;;;;27.7;39.5;101290;;;;
2021/07/11 18:11:37;;;;;;;2.8;2.6;;;;;;;27.6;40.6;101290;;;;
2021/07/11 18:13:39;;;;;;;2.8;2.6;;;;;;;27.5;40.7;101300;;;;
2021/07/11 18:15:37;;;;;;;2.8;2.6;;;;;;;27.1;40.1;101300;;;;
2021/07/11 18:19:37;;;;;;;3.1;2.8;;;;;;;27.0;40.5;101300;;;;
2021/07/11 18:21:37;;;;;;;3.1;2.8;;;;;;;26.8;41.2;101300;;;;
2021/07/11 18:23:37;;;;;;;3.1;2.8;;;;;;;26.9;41.0;101300;;;;
2021/07/11 18:25:37;;;;;;;3.1;2.8;;;;;;;26.8;40.3;101300;;;;
2021/07/11 18:27:37;;;;;;;3.1;2.8;;;;;;;26.6;41.6;101290;;;;
2021/07/11 18:29:37;;;;;;;3.1;2.8;;;;;;;26.5;42.0;101300;;;;
2021/07/11 18:31:37;;;;;;;3.1;2.8;;;;;;;26.4;41.3;101300;;;;
2021/07/11 18:33:37;;;;;;;3.1;2.8;;;;;;;26.3;41.3;101300;;;;
2021/07/11 18:35:39;;;;;;;3.1;2.8;;;;;;;25.9;41.2;101300;;;;
2021/07/11 18:37:37;;;;;;;3.1;2.8;;;;;;;26.2;42.4;101300;;;;
2021/07/11 18:39:37;;;;;;;3.1;2.8;;;;;;;26.0;41.4;101300;;;;
2021/07/11 18:41:37;;;;;;;3.1;2.8;;;;;;;25.8;42.1;101300;;;;
2021/07/11 18:47:38;;;;;;;3.1;2.8;;;;;;;25.7;43.0;101300;;;;
2021/07/11 18:51:37;;;;;;;3.1;2.8;;;;;;;25.8;43.0;101310;;;;
2021/07/11 18:55:37;;;;;;;3.1;2.8;;;;;;;25.6;43.8;101300;;;;
2021/07/11 18:57:40;;;;;;;3.1;2.8;;;;;;;25.9;43.5;101290;;;;
2021/07/11 18:59:37;;;;;;;3.2;3.0;;;;;;;25.7;43.5;101290;;;;
2021/07/11 19:01:37;;;;;;;3.2;3.0;;;;;;;25.6;43.1;101290;;;;
2021/07/11 19:03:37;;;;;;;3.2;3.0;;;;;;;25.4;43.9;101290;;;;
2021/07/11 19:05:37;;;;;;;3.2;3.0;;;;;;;25.3;44.5;101290;;;;
2021/07/11 19:07:37;;;;;;;3.2;3.0;;;;;;;24.9;43.9;101290;;;;